sensor_id;sensor_type;location;lat;lon;timestamp;temperature;humidity
21355;DHT22;10835;50.148;19.760;2023-04-15T00:01:13;24.50;46.70
21355;DHT22;10835;50.148;19.760;2023-04-15T00:03:45;24.20;46.60
21355;DHT22;10835;50.148;19.760;2023-04-15T00:06:14;24.20;46.80
21355;DHT22;10835;50.148;19.760;2023-04-15T00:08:42;24.30;46.70
21355;DHT22;10835;50.148;19.760;2023-04-15T00:11:11;24.40;46.60
21355;DHT22;10835;50.148;19.760;2023-04-15T00:13:41;24.50;46.40
21355;DHT22;10835;50.148;19.760;2023-04-15T00:16:09;24.60;46.00
21355;DHT22;10835;50.148;19.760;2023-04-15T00:18:39;24.70;45.90
21355;DHT22;10835;50.148;19.760;2023-04-15T00:21:08;24.70;45.80
21355;DHT22;10835;50.148;19.760;2023-04-15T00:23:36;24.60;45.70
21355;DHT22;10835;50.148;19.760;2023-04-15T00:26:04;24.60;45.50
21355;DHT22;10835;50.148;19.760;2023-04-15T00:28:33;24.70;45.30
21355;DHT22;10835;50.148;19.760;2023-04-15T00:31:03;24.70;44.80
21355;DHT22;10835;50.148;19.760;2023-04-15T00:33:32;24.70;44.40
21355;DHT22;10835;50.148;19.760;2023-04-15T00:36:05;24.70;44.00
21355;DHT22;10835;50.148;19.760;2023-04-15T00:38:35;24.90;43.30
21355;DHT22;10835;50.148;19.760;2023-04-15T00:41:03;24.90;43.10
21355;DHT22;10835;50.148;19.760;2023-04-15T00:43:32;25.10;43.10
21355;DHT22;10835;50.148;19.760;2023-04-15T00:46:00;25.10;42.90
21355;DHT22;10835;50.148;19.760;2023-04-15T00:48:32;24.70;43.30
21355;DHT22;10835;50.148;19.760;2023-04-15T00:51:00;24.90;43.70
21355;DHT22;10835;50.148;19.760;2023-04-15T00:53:29;25.00;43.00
21355;DHT22;10835;50.148;19.760;2023-04-15T00:55:57;25.10;42.90
21355;DHT22;10835;50.148;19.760;2023-04-15T00:58:25;24.90;42.90
21355;DHT22;10835;50.148;19.760;2023-04-15T01:00:56;24.70;43.50
21355;DHT22;10835;50.148;19.760;2023-04-15T01:03:24;24.20;44.20
21355;DHT22;10835;50.148;19.760;2023-04-15T01:05:55;24.70;44.30
21355;DHT22;10835;50.148;19.760;2023-04-15T01:08:26;24.90;43.70
21355;DHT22;10835;50.148;19.760;2023-04-15T01:10:55;25.00;43.40
21355;DHT22;10835;50.148;19.760;2023-04-15T01:13:23;24.70;43.90
21355;DHT22;10835;50.148;19.760;2023-04-15T01:15:52;24.90;44.10
21355;DHT22;10835;50.148;19.760;2023-04-15T01:18:22;24.90;43.80
21355;DHT22;10835;50.148;19.760;2023-04-15T01:20:51;25.10;43.70
21355;DHT22;10835;50.148;19.760;2023-04-15T01:23:24;25.10;43.40
21355;DHT22;10835;50.148;19.760;2023-04-15T01:25:55;25.10;43.60
21355;DHT22;10835;50.148;19.760;2023-04-15T01:28:24;24.60;44.00
21355;DHT22;10835;50.148;19.760;2023-04-15T01:31:05;24.40;44.60
21355;DHT22;10835;50.148;19.760;2023-04-15T01:33:37;24.50;44.50
21355;DHT22;10835;50.148;19.760;2023-04-15T01:36:24;23.60;44.70
21355;DHT22;10835;50.148;19.760;2023-04-15T01:38:52;23.90;45.50
21355;DHT22;10835;50.148;19.760;2023-04-15T01:41:24;24.00;45.10
21355;DHT22;10835;50.148;19.760;2023-04-15T01:43:54;24.30;45.00
21355;DHT22;10835;50.148;19.760;2023-04-15T01:46:23;24.40;44.40
21355;DHT22;10835;50.148;19.760;2023-04-15T01:48:54;24.50;44.20
21355;DHT22;10835;50.148;19.760;2023-04-15T01:51:26;24.70;43.70
21355;DHT22;10835;50.148;19.760;2023-04-15T01:53:55;24.70;43.30
21355;DHT22;10835;50.148;19.760;2023-04-15T01:56:26;24.80;42.70
21355;DHT22;10835;50.148;19.760;2023-04-15T01:58:56;24.80;43.10
21355;DHT22;10835;50.148;19.760;2023-04-15T02:01:27;24.60;43.10
21355;DHT22;10835;50.148;19.760;2023-04-15T02:03:59;24.40;43.70
21355;DHT22;10835;50.148;19.760;2023-04-15T02:06:31;24.10;44.30
21355;DHT22;10835;50.148;19.760;2023-04-15T02:09:01;24.10;44.40
21355;DHT22;10835;50.148;19.760;2023-04-15T02:11:32;24.20;43.80
21355;DHT22;10835;50.148;19.760;2023-04-15T02:14:04;24.40;44.00
21355;DHT22;10835;50.148;19.760;2023-04-15T02:16:33;24.40;43.60
21355;DHT22;10835;50.148;19.760;2023-04-15T02:19:03;24.50;43.40
21355;DHT22;10835;50.148;19.760;2023-04-15T02:21:33;24.60;42.90
21355;DHT22;10835;50.148;19.760;2023-04-15T02:24:03;24.50;42.90
21355;DHT22;10835;50.148;19.760;2023-04-15T02:26:35;24.40;42.70
21355;DHT22;10835;50.148;19.760;2023-04-15T02:29:04;24.30;43.10
21355;DHT22;10835;50.148;19.760;2023-04-15T02:31:33;24.10;43.50
21355;DHT22;10835;50.148;19.760;2023-04-15T02:34:07;24.20;43.80
21355;DHT22;10835;50.148;19.760;2023-04-15T02:36:37;24.30;43.60
21355;DHT22;10835;50.148;19.760;2023-04-15T02:39:07;24.20;43.80
21355;DHT22;10835;50.148;19.760;2023-04-15T02:41:38;24.00;43.90
21355;DHT22;10835;50.148;19.760;2023-04-15T02:44:08;23.70;44.00
21355;DHT22;10835;50.148;19.760;2023-04-15T02:46:40;23.10;44.50
21355;DHT22;10835;50.148;19.760;2023-04-15T02:49:10;23.20;45.00
21355;DHT22;10835;50.148;19.760;2023-04-15T02:51:39;23.50;44.70
21355;DHT22;10835;50.148;19.760;2023-04-15T02:54:09;23.60;44.60
21355;DHT22;10835;50.148;19.760;2023-04-15T02:56:40;23.50;44.40
21355;DHT22;10835;50.148;19.760;2023-04-15T02:59:10;22.80;45.00
21355;DHT22;10835;50.148;19.760;2023-04-15T03:01:40;22.60;46.10
21355;DHT22;10835;50.148;19.760;2023-04-15T03:04:10;22.80;45.90
21355;DHT22;10835;50.148;19.760;2023-04-15T03:06:39;22.80;45.90
21355;DHT22;10835;50.148;19.760;2023-04-15T03:09:10;23.30;44.90
21355;DHT22;10835;50.148;19.760;2023-04-15T03:11:41;23.60;44.40
21355;DHT22;10835;50.148;19.760;2023-04-15T03:14:10;23.30;44.40
21355;DHT22;10835;50.148;19.760;2023-04-15T03:16:43;23.40;44.70
21355;DHT22;10835;50.148;19.760;2023-04-15T03:19:14;23.20;44.70
21355;DHT22;10835;50.148;19.760;2023-04-15T03:21:44;23.00;45.00
21355;DHT22;10835;50.148;19.760;2023-04-15T03:24:14;23.00;45.10
21355;DHT22;10835;50.148;19.760;2023-04-15T03:26:46;22.70;44.80
21355;DHT22;10835;50.148;19.760;2023-04-15T03:29:17;22.70;45.00
21355;DHT22;10835;50.148;19.760;2023-04-15T03:31:48;22.80;45.30
21355;DHT22;10835;50.148;19.760;2023-04-15T03:34:17;22.60;45.50
21355;DHT22;10835;50.148;19.760;2023-04-15T03:36:47;22.30;45.60
21355;DHT22;10835;50.148;19.760;2023-04-15T03:39:16;22.40;46.30
21355;DHT22;10835;50.148;19.760;2023-04-15T03:41:47;22.80;45.70
21355;DHT22;10835;50.148;19.760;2023-04-15T03:44:17;23.30;44.80
21355;DHT22;10835;50.148;19.760;2023-04-15T03:46:46;23.40;44.30
21355;DHT22;10835;50.148;19.760;2023-04-15T03:49:16;23.40;44.40
21355;DHT22;10835;50.148;19.760;2023-04-15T03:51:46;23.30;44.40
21355;DHT22;10835;50.148;19.760;2023-04-15T03:54:15;22.90;44.60
21355;DHT22;10835;50.148;19.760;2023-04-15T03:56:46;22.90;45.00
21355;DHT22;10835;50.148;19.760;2023-04-15T03:59:16;23.10;44.90
21355;DHT22;10835;50.148;19.760;2023-04-15T04:01:45;23.40;44.30
21355;DHT22;10835;50.148;19.760;2023-04-15T04:04:15;23.30;44.00
21355;DHT22;10835;50.148;19.760;2023-04-15T04:06:44;23.10;44.70
21355;DHT22;10835;50.148;19.760;2023-04-15T04:09:14;23.10;44.60
21355;DHT22;10835;50.148;19.760;2023-04-15T04:11:43;22.60;45.20
21355;DHT22;10835;50.148;19.760;2023-04-15T04:14:15;22.90;45.30
21355;DHT22;10835;50.148;19.760;2023-04-15T04:16:44;23.10;45.00
21355;DHT22;10835;50.148;19.760;2023-04-15T04:19:14;23.40;44.70
21355;DHT22;10835;50.148;19.760;2023-04-15T04:21:46;23.50;44.30
21355;DHT22;10835;50.148;19.760;2023-04-15T04:24:16;23.50;44.30
21355;DHT22;10835;50.148;19.760;2023-04-15T04:26:45;22.50;44.70
21355;DHT22;10835;50.148;19.760;2023-04-15T04:29:16;21.80;46.30
21355;DHT22;10835;50.148;19.760;2023-04-15T04:31:45;21.80;46.80
21355;DHT22;10835;50.148;19.760;2023-04-15T04:34:15;21.40;46.90
21355;DHT22;10835;50.148;19.760;2023-04-15T04:36:45;21.90;47.50
21355;DHT22;10835;50.148;19.760;2023-04-15T04:39:14;22.20;47.20
21355;DHT22;10835;50.148;19.760;2023-04-15T04:41:44;22.90;45.70
21355;DHT22;10835;50.148;19.760;2023-04-15T04:44:13;22.70;45.40
21355;DHT22;10835;50.148;19.760;2023-04-15T04:46:44;22.60;46.20
21355;DHT22;10835;50.148;19.760;2023-04-15T04:49:14;22.30;45.90
21355;DHT22;10835;50.148;19.760;2023-04-15T04:51:43;22.80;46.50
21355;DHT22;10835;50.148;19.760;2023-04-15T04:54:14;23.20;45.60
21355;DHT22;10835;50.148;19.760;2023-04-15T04:56:44;23.20;45.10
21355;DHT22;10835;50.148;19.760;2023-04-15T04:59:13;23.30;45.20
21355;DHT22;10835;50.148;19.760;2023-04-15T05:01:45;23.40;45.10
21355;DHT22;10835;50.148;19.760;2023-04-15T05:04:15;23.80;44.70
21355;DHT22;10835;50.148;19.760;2023-04-15T05:06:44;24.00;44.00
21355;DHT22;10835;50.148;19.760;2023-04-15T05:09:14;23.90;44.20
21355;DHT22;10835;50.148;19.760;2023-04-15T05:11:43;24.10;44.10
21355;DHT22;10835;50.148;19.760;2023-04-15T05:14:13;24.20;43.80
21355;DHT22;10835;50.148;19.760;2023-04-15T05:16:42;24.40;43.40
21355;DHT22;10835;50.148;19.760;2023-04-15T05:19:16;24.10;43.70
21355;DHT22;10835;50.148;19.760;2023-04-15T05:21:45;24.10;43.60
21355;DHT22;10835;50.148;19.760;2023-04-15T05:24:15;24.30;44.10
21355;DHT22;10835;50.148;19.760;2023-04-15T05:26:45;24.00;44.00
21355;DHT22;10835;50.148;19.760;2023-04-15T05:29:14;23.80;44.00
21355;DHT22;10835;50.148;19.760;2023-04-15T05:31:44;24.20;43.70
21355;DHT22;10835;50.148;19.760;2023-04-15T05:34:13;24.30;43.50
21355;DHT22;10835;50.148;19.760;2023-04-15T05:36:46;24.60;43.00
21355;DHT22;10835;50.148;19.760;2023-04-15T05:39:15;24.90;43.00
21355;DHT22;10835;50.148;19.760;2023-04-15T05:41:44;25.10;42.80
21355;DHT22;10835;50.148;19.760;2023-04-15T05:44:14;25.30;42.90
21355;DHT22;10835;50.148;19.760;2023-04-15T05:46:43;25.40;43.00
21355;DHT22;10835;50.148;19.760;2023-04-15T05:49:13;25.60;43.60
21355;DHT22;10835;50.148;19.760;2023-04-15T05:51:42;25.80;42.70
21355;DHT22;10835;50.148;19.760;2023-04-15T05:54:13;25.50;42.00
21355;DHT22;10835;50.148;19.760;2023-04-15T05:56:45;25.50;42.50
21355;DHT22;10835;50.148;19.760;2023-04-15T05:59:15;25.80;41.80
21355;DHT22;10835;50.148;19.760;2023-04-15T06:01:44;25.60;42.00
21355;DHT22;10835;50.148;19.760;2023-04-15T06:04:14;26.00;41.70
21355;DHT22;10835;50.148;19.760;2023-04-15T06:06:44;26.20;41.00
21355;DHT22;10835;50.148;19.760;2023-04-15T06:09:15;26.20;40.80
21355;DHT22;10835;50.148;19.760;2023-04-15T06:11:45;25.80;41.00
21355;DHT22;10835;50.148;19.760;2023-04-15T06:14:14;24.90;40.80
21355;DHT22;10835;50.148;19.760;2023-04-15T06:16:44;25.00;40.20
21355;DHT22;10835;50.148;19.760;2023-04-15T06:19:14;25.60;41.20
21355;DHT22;10835;50.148;19.760;2023-04-15T06:21:43;25.80;41.10
21355;DHT22;10835;50.148;19.760;2023-04-15T06:24:15;25.30;39.80
21355;DHT22;10835;50.148;19.760;2023-04-15T06:26:44;24.60;38.70
21355;DHT22;10835;50.148;19.760;2023-04-15T06:29:13;25.00;37.80
21355;DHT22;10835;50.148;19.760;2023-04-15T06:31:43;25.20;37.70
21355;DHT22;10835;50.148;19.760;2023-04-15T06:34:13;24.50;38.70
21355;DHT22;10835;50.148;19.760;2023-04-15T06:36:45;25.30;39.20
21355;DHT22;10835;50.148;19.760;2023-04-15T06:39:16;25.70;37.50
21355;DHT22;10835;50.148;19.760;2023-04-15T06:41:46;26.00;38.70
21355;DHT22;10835;50.148;19.760;2023-04-15T06:44:15;26.10;38.10
21355;DHT22;10835;50.148;19.760;2023-04-15T06:46:45;26.40;36.30
21355;DHT22;10835;50.148;19.760;2023-04-15T06:49:15;26.10;35.50
21355;DHT22;10835;50.148;19.760;2023-04-15T06:51:45;26.50;35.90
21355;DHT22;10835;50.148;19.760;2023-04-15T06:54:15;26.70;36.50
21355;DHT22;10835;50.148;19.760;2023-04-15T06:56:45;26.70;36.40
21355;DHT22;10835;50.148;19.760;2023-04-15T06:59:15;26.80;36.90
21355;DHT22;10835;50.148;19.760;2023-04-15T07:01:44;26.40;37.50
21355;DHT22;10835;50.148;19.760;2023-04-15T07:04:14;26.60;36.40
21355;DHT22;10835;50.148;19.760;2023-04-15T07:06:43;26.50;36.20
21355;DHT22;10835;50.148;19.760;2023-04-15T07:09:13;26.70;36.10
21355;DHT22;10835;50.148;19.760;2023-04-15T07:11:44;26.30;36.20
21355;DHT22;10835;50.148;19.760;2023-04-15T07:14:13;26.40;36.40
21355;DHT22;10835;50.148;19.760;2023-04-15T07:16:43;25.90;36.70
21355;DHT22;10835;50.148;19.760;2023-04-15T07:19:12;26.10;36.90
21355;DHT22;10835;50.148;19.760;2023-04-15T07:21:42;26.20;36.80
21355;DHT22;10835;50.148;19.760;2023-04-15T07:24:13;26.20;36.60
21355;DHT22;10835;50.148;19.760;2023-04-15T07:26:45;26.10;37.00
21355;DHT22;10835;50.148;19.760;2023-04-15T07:29:15;26.30;37.70
21355;DHT22;10835;50.148;19.760;2023-04-15T07:31:45;26.10;36.60
21355;DHT22;10835;50.148;19.760;2023-04-15T07:34:14;26.10;36.40
21355;DHT22;10835;50.148;19.760;2023-04-15T07:36:44;26.10;36.60
21355;DHT22;10835;50.148;19.760;2023-04-15T07:39:17;26.10;36.80
21355;DHT22;10835;50.148;19.760;2023-04-15T07:41:48;26.10;36.80
21355;DHT22;10835;50.148;19.760;2023-04-15T07:44:18;26.10;37.80
21355;DHT22;10835;50.148;19.760;2023-04-15T07:46:48;25.90;37.40
21355;DHT22;10835;50.148;19.760;2023-04-15T07:49:17;25.90;37.20
21355;DHT22;10835;50.148;19.760;2023-04-15T07:51:48;26.10;36.90
21355;DHT22;10835;50.148;19.760;2023-04-15T07:54:18;26.00;37.30
21355;DHT22;10835;50.148;19.760;2023-04-15T07:56:49;25.80;36.60
21355;DHT22;10835;50.148;19.760;2023-04-15T07:59:19;25.80;37.20
21355;DHT22;10835;50.148;19.760;2023-04-15T08:01:48;25.20;37.80
21355;DHT22;10835;50.148;19.760;2023-04-15T08:04:18;24.50;38.50
21355;DHT22;10835;50.148;19.760;2023-04-15T08:06:48;24.00;38.70
21355;DHT22;10835;50.148;19.760;2023-04-15T08:09:17;24.50;40.10
21355;DHT22;10835;50.148;19.760;2023-04-15T08:11:49;24.60;39.10
21355;DHT22;10835;50.148;19.760;2023-04-15T08:14:18;25.00;38.60
21355;DHT22;10835;50.148;19.760;2023-04-15T08:16:48;25.50;39.00
21355;DHT22;10835;50.148;19.760;2023-04-15T08:19:17;25.60;37.40
21355;DHT22;10835;50.148;19.760;2023-04-15T08:21:47;25.90;38.50
21355;DHT22;10835;50.148;19.760;2023-04-15T08:24:17;26.30;37.80
21355;DHT22;10835;50.148;19.760;2023-04-15T08:26:46;25.70;37.40
21355;DHT22;10835;50.148;19.760;2023-04-15T08:29:17;25.90;38.30
21355;DHT22;10835;50.148;19.760;2023-04-15T08:31:47;26.60;38.10
21355;DHT22;10835;50.148;19.760;2023-04-15T08:34:16;26.90;37.20
21355;DHT22;10835;50.148;19.760;2023-04-15T08:36:46;27.30;35.10
21355;DHT22;10835;50.148;19.760;2023-04-15T08:39:16;27.10;35.30
21355;DHT22;10835;50.148;19.760;2023-04-15T08:41:47;27.10;36.10
21355;DHT22;10835;50.148;19.760;2023-04-15T08:44:23;27.00;34.70
21355;DHT22;10835;50.148;19.760;2023-04-15T08:46:53;26.90;34.60
21355;DHT22;10835;50.148;19.760;2023-04-15T08:49:26;26.80;35.30
21355;DHT22;10835;50.148;19.760;2023-04-15T08:51:58;27.00;34.60
21355;DHT22;10835;50.148;19.760;2023-04-15T08:54:28;26.40;34.20
21355;DHT22;10835;50.148;19.760;2023-04-15T08:56:57;27.00;35.30
21355;DHT22;10835;50.148;19.760;2023-04-15T08:59:29;26.90;34.60
21355;DHT22;10835;50.148;19.760;2023-04-15T09:01:58;27.00;35.30
21355;DHT22;10835;50.148;19.760;2023-04-15T09:04:28;27.40;34.50
21355;DHT22;10835;50.148;19.760;2023-04-15T09:06:58;27.70;34.00
21355;DHT22;10835;50.148;19.760;2023-04-15T09:09:28;26.90;33.70
21355;DHT22;10835;50.148;19.760;2023-04-15T09:11:57;27.70;34.70
21355;DHT22;10835;50.148;19.760;2023-04-15T09:14:28;28.10;33.10
21355;DHT22;10835;50.148;19.760;2023-04-15T09:17:00;28.50;33.80
21355;DHT22;10835;50.148;19.760;2023-04-15T09:19:30;28.60;33.00
21355;DHT22;10835;50.148;19.760;2023-04-15T09:22:01;28.80;32.20
21355;DHT22;10835;50.148;19.760;2023-04-15T09:24:35;28.30;32.70
21355;DHT22;10835;50.148;19.760;2023-04-15T09:27:15;27.80;33.10
21355;DHT22;10835;50.148;19.760;2023-04-15T09:29:49;28.50;32.50
21355;DHT22;10835;50.148;19.760;2023-04-15T09:32:19;28.70;33.60
21355;DHT22;10835;50.148;19.760;2023-04-15T09:34:50;28.90;32.00
21355;DHT22;10835;50.148;19.760;2023-04-15T09:37:34;29.10;31.40
21355;DHT22;10835;50.148;19.760;2023-04-15T09:40:04;29.30;32.30
21355;DHT22;10835;50.148;19.760;2023-04-15T09:42:34;29.30;31.70
21355;DHT22;10835;50.148;19.760;2023-04-15T09:45:10;29.10;32.90
21355;DHT22;10835;50.148;19.760;2023-04-15T09:47:39;28.60;33.70
21355;DHT22;10835;50.148;19.760;2023-04-15T09:50:09;28.80;33.50
21355;DHT22;10835;50.148;19.760;2023-04-15T09:52:42;28.90;32.90
21355;DHT22;10835;50.148;19.760;2023-04-15T09:55:12;29.00;32.90
21355;DHT22;10835;50.148;19.760;2023-04-15T09:57:42;29.20;31.50
21355;DHT22;10835;50.148;19.760;2023-04-15T10:00:15;29.30;30.90
21355;DHT22;10835;50.148;19.760;2023-04-15T10:02:46;29.60;31.40
21355;DHT22;10835;50.148;19.760;2023-04-15T10:05:16;29.60;32.10
21355;DHT22;10835;50.148;19.760;2023-04-15T10:07:47;29.50;31.60
21355;DHT22;10835;50.148;19.760;2023-04-15T10:10:17;29.30;31.30
21355;DHT22;10835;50.148;19.760;2023-04-15T10:12:47;29.00;32.10
21355;DHT22;10835;50.148;19.760;2023-04-15T10:15:20;28.40;30.90
21355;DHT22;10835;50.148;19.760;2023-04-15T10:17:50;28.60;33.30
21355;DHT22;10835;50.148;19.760;2023-04-15T10:20:21;28.80;32.90
21355;DHT22;10835;50.148;19.760;2023-04-15T10:22:52;29.00;32.20
21355;DHT22;10835;50.148;19.760;2023-04-15T10:25:23;29.20;31.90
21355;DHT22;10835;50.148;19.760;2023-04-15T10:27:55;29.40;32.20
21355;DHT22;10835;50.148;19.760;2023-04-15T10:30:26;29.30;31.70
21355;DHT22;10835;50.148;19.760;2023-04-15T10:32:56;29.60;31.70
21355;DHT22;10835;50.148;19.760;2023-04-15T10:35:26;29.80;30.90
21355;DHT22;10835;50.148;19.760;2023-04-15T10:38:00;29.90;29.50
21355;DHT22;10835;50.148;19.760;2023-04-15T10:40:30;29.90;29.90
21355;DHT22;10835;50.148;19.760;2023-04-15T10:43:02;30.00;31.10
21355;DHT22;10835;50.148;19.760;2023-04-15T10:45:35;30.10;29.90
21355;DHT22;10835;50.148;19.760;2023-04-15T10:48:07;29.70;30.60
21355;DHT22;10835;50.148;19.760;2023-04-15T10:50:36;30.10;31.20
21355;DHT22;10835;50.148;19.760;2023-04-15T10:53:09;30.30;29.90
21355;DHT22;10835;50.148;19.760;2023-04-15T10:55:39;30.10;29.40
21355;DHT22;10835;50.148;19.760;2023-04-15T10:58:09;29.50;29.90
21355;DHT22;10835;50.148;19.760;2023-04-15T11:00:40;29.20;29.60
21355;DHT22;10835;50.148;19.760;2023-04-15T11:03:35;30.00;29.70
21355;DHT22;10835;50.148;19.760;2023-04-15T11:06:06;30.10;30.10
21355;DHT22;10835;50.148;19.760;2023-04-15T11:08:58;30.00;30.20
21355;DHT22;10835;50.148;19.760;2023-04-15T11:12:04;29.80;29.90
21355;DHT22;10835;50.148;19.760;2023-04-15T11:14:40;29.80;30.70
21355;DHT22;10835;50.148;19.760;2023-04-15T11:17:11;29.70;31.40
21355;DHT22;10835;50.148;19.760;2023-04-15T11:19:41;29.60;30.90
21355;DHT22;10835;50.148;19.760;2023-04-15T11:22:11;29.10;31.10
21355;DHT22;10835;50.148;19.760;2023-04-15T11:24:46;29.10;31.80
21355;DHT22;10835;50.148;19.760;2023-04-15T11:27:21;29.10;31.20
21355;DHT22;10835;50.148;19.760;2023-04-15T11:29:50;29.00;31.40
21355;DHT22;10835;50.148;19.760;2023-04-15T11:32:22;28.90;31.60
21355;DHT22;10835;50.148;19.760;2023-04-15T11:34:51;28.80;31.90
21355;DHT22;10835;50.148;19.760;2023-04-15T11:37:28;28.80;31.50
21355;DHT22;10835;50.148;19.760;2023-04-15T11:39:57;28.80;31.60
21355;DHT22;10835;50.148;19.760;2023-04-15T11:42:27;28.90;31.90
21355;DHT22;10835;50.148;19.760;2023-04-15T11:45:14;29.00;32.20
21355;DHT22;10835;50.148;19.760;2023-04-15T11:47:45;28.90;31.60
21355;DHT22;10835;50.148;19.760;2023-04-15T11:50:16;29.00;31.80
21355;DHT22;10835;50.148;19.760;2023-04-15T11:52:54;29.00;31.80
21355;DHT22;10835;50.148;19.760;2023-04-15T11:55:23;29.10;32.00
21355;DHT22;10835;50.148;19.760;2023-04-15T11:58:05;29.10;32.20
21355;DHT22;10835;50.148;19.760;2023-04-15T12:00:34;28.50;32.20
21355;DHT22;10835;50.148;19.760;2023-04-15T12:03:16;27.80;32.60
21355;DHT22;10835;50.148;19.760;2023-04-15T12:06:18;26.80;35.70
21355;DHT22;10835;50.148;19.760;2023-04-15T12:08:57;26.10;37.90
21355;DHT22;10835;50.148;19.760;2023-04-15T12:11:32;25.60;39.40
21355;DHT22;10835;50.148;19.760;2023-04-15T12:14:07;24.40;41.30
21355;DHT22;10835;50.148;19.760;2023-04-15T12:16:38;23.20;43.30
21355;DHT22;10835;50.148;19.760;2023-04-15T12:19:21;22.70;44.90
21355;DHT22;10835;50.148;19.760;2023-04-15T12:21:51;21.90;46.00
21355;DHT22;10835;50.148;19.760;2023-04-15T12:24:21;21.70;46.80
21355;DHT22;10835;50.148;19.760;2023-04-15T12:26:51;22.10;46.80
21355;DHT22;10835;50.148;19.760;2023-04-15T12:29:27;22.70;46.20
21355;DHT22;10835;50.148;19.760;2023-04-15T12:31:56;22.80;45.30
21355;DHT22;10835;50.148;19.760;2023-04-15T12:34:28;22.90;44.60
21355;DHT22;10835;50.148;19.760;2023-04-15T12:36:57;24.00;44.20
21355;DHT22;10835;50.148;19.760;2023-04-15T12:39:27;24.00;43.50
21355;DHT22;10835;50.148;19.760;2023-04-15T12:41:57;25.30;40.40
21355;DHT22;10835;50.148;19.760;2023-04-15T12:44:26;25.80;38.30
21355;DHT22;10835;50.148;19.760;2023-04-15T12:46:55;25.50;38.10
21355;DHT22;10835;50.148;19.760;2023-04-15T12:49:24;25.90;38.40
21355;DHT22;10835;50.148;19.760;2023-04-15T12:51:55;26.60;38.00
21355;DHT22;10835;50.148;19.760;2023-04-15T12:54:23;27.10;37.00
21355;DHT22;10835;50.148;19.760;2023-04-15T12:56:52;27.30;37.10
21355;DHT22;10835;50.148;19.760;2023-04-15T12:59:21;27.70;37.00
21355;DHT22;10835;50.148;19.760;2023-04-15T13:01:50;28.00;35.60
21355;DHT22;10835;50.148;19.760;2023-04-15T13:04:20;28.30;36.00
21355;DHT22;10835;50.148;19.760;2023-04-15T13:06:49;28.00;36.20
21355;DHT22;10835;50.148;19.760;2023-04-15T13:09:21;28.50;35.00
21355;DHT22;10835;50.148;19.760;2023-04-15T13:11:49;28.20;34.40
21355;DHT22;10835;50.148;19.760;2023-04-15T13:14:18;27.50;35.40
21355;DHT22;10835;50.148;19.760;2023-04-15T13:16:47;27.70;36.40
21355;DHT22;10835;50.148;19.760;2023-04-15T13:19:15;28.30;34.60
21355;DHT22;10835;50.148;19.760;2023-04-15T13:21:43;28.30;34.00
21355;DHT22;10835;50.148;19.760;2023-04-15T13:24:11;28.60;34.20
21355;DHT22;10835;50.148;19.760;2023-04-15T13:26:41;28.50;33.70
21355;DHT22;10835;50.148;19.760;2023-04-15T13:29:13;29.00;33.90
21355;DHT22;10835;50.148;19.760;2023-04-15T13:31:45;29.20;34.30
21355;DHT22;10835;50.148;19.760;2023-04-15T13:34:14;29.00;34.00
21355;DHT22;10835;50.148;19.760;2023-04-15T13:36:42;28.80;33.30
21355;DHT22;10835;50.148;19.760;2023-04-15T13:39:10;28.80;33.50
21355;DHT22;10835;50.148;19.760;2023-04-15T13:41:42;28.90;32.70
21355;DHT22;10835;50.148;19.760;2023-04-15T13:44:11;28.60;32.80
21355;DHT22;10835;50.148;19.760;2023-04-15T13:46:39;28.60;33.50
21355;DHT22;10835;50.148;19.760;2023-04-15T13:49:10;28.50;33.50
21355;DHT22;10835;50.148;19.760;2023-04-15T13:51:38;28.50;33.80
21355;DHT22;10835;50.148;19.760;2023-04-15T13:54:06;28.50;33.10
21355;DHT22;10835;50.148;19.760;2023-04-15T13:56:35;28.60;33.00
21355;DHT22;10835;50.148;19.760;2023-04-15T13:59:07;28.50;33.30
21355;DHT22;10835;50.148;19.760;2023-04-15T14:01:35;28.40;33.30
21355;DHT22;10835;50.148;19.760;2023-04-15T14:04:04;28.60;34.20
21355;DHT22;10835;50.148;19.760;2023-04-15T14:06:33;28.30;34.20
21355;DHT22;10835;50.148;19.760;2023-04-15T14:09:01;28.70;34.00
21355;DHT22;10835;50.148;19.760;2023-04-15T14:11:30;28.50;34.00
21355;DHT22;10835;50.148;19.760;2023-04-15T14:13:58;28.50;32.90
21355;DHT22;10835;50.148;19.760;2023-04-15T14:16:28;28.70;33.60
21355;DHT22;10835;50.148;19.760;2023-04-15T14:18:56;28.80;33.10
21355;DHT22;10835;50.148;19.760;2023-04-15T14:21:25;28.80;32.70
21355;DHT22;10835;50.148;19.760;2023-04-15T14:23:54;28.80;34.00
21355;DHT22;10835;50.148;19.760;2023-04-15T14:26:22;29.00;33.40
21355;DHT22;10835;50.148;19.760;2023-04-15T14:28:53;28.80;32.80
21355;DHT22;10835;50.148;19.760;2023-04-15T14:31:21;28.50;33.30
21355;DHT22;10835;50.148;19.760;2023-04-15T14:33:51;28.90;31.80
21355;DHT22;10835;50.148;19.760;2023-04-15T14:36:19;29.10;31.90
21355;DHT22;10835;50.148;19.760;2023-04-15T14:38:47;29.30;31.00
21355;DHT22;10835;50.148;19.760;2023-04-15T14:41:16;29.30;29.60
21355;DHT22;10835;50.148;19.760;2023-04-15T14:43:44;29.50;29.60
21355;DHT22;10835;50.148;19.760;2023-04-15T14:46:12;29.50;29.20
21355;DHT22;10835;50.148;19.760;2023-04-15T14:48:41;29.60;29.50
21355;DHT22;10835;50.148;19.760;2023-04-15T14:51:13;29.60;29.30
21355;DHT22;10835;50.148;19.760;2023-04-15T14:53:42;29.50;29.30
21355;DHT22;10835;50.148;19.760;2023-04-15T14:56:10;29.40;29.80
21355;DHT22;10835;50.148;19.760;2023-04-15T14:58:40;29.10;29.70
21355;DHT22;10835;50.148;19.760;2023-04-15T15:01:09;29.10;30.10
21355;DHT22;10835;50.148;19.760;2023-04-15T15:03:38;29.10;30.10
21355;DHT22;10835;50.148;19.760;2023-04-15T15:06:06;28.80;29.90
21355;DHT22;10835;50.148;19.760;2023-04-15T15:08:36;28.60;30.00
21355;DHT22;10835;50.148;19.760;2023-04-15T15:11:04;28.80;30.50
21355;DHT22;10835;50.148;19.760;2023-04-15T15:13:33;29.00;30.60
21355;DHT22;10835;50.148;19.760;2023-04-15T15:16:01;29.20;30.00
21355;DHT22;10835;50.148;19.760;2023-04-15T15:18:30;29.10;30.20
21355;DHT22;10835;50.148;19.760;2023-04-15T15:20:58;28.90;30.00
21355;DHT22;10835;50.148;19.760;2023-04-15T15:23:26;28.70;30.00
21355;DHT22;10835;50.148;19.760;2023-04-15T15:25:56;28.70;29.80
21355;DHT22;10835;50.148;19.760;2023-04-15T15:28:25;28.50;30.00
21355;DHT22;10835;50.148;19.760;2023-04-15T15:30:54;28.50;31.00
21355;DHT22;10835;50.148;19.760;2023-04-15T15:33:22;28.40;31.10
21355;DHT22;10835;50.148;19.760;2023-04-15T15:35:51;28.50;31.70